Bee, Nebraska
Current Conditions -  °F | °C
As of 6:54 PM on Tuesday 27 Jan 2015 (Local Time) from KLNK Reporting Station
Clear Clear  
Wind Chill: 43°   Ceiling: Unl
Heat Index: 48°   Visibility: 10mi
Dew Point: 32°   Wind: 12mph
Humidity: 54%   Direction: 130°SE
Pressure: 30.02"   Gusts: NA
Location:  41.01°N, 97.06°W
Report Text: KLNK 280054Z 13010KT 10SM CLR 09/00 A3002 RMK AO2 SLP175 T00890000
Loading
Personal Weather Stations






























Interactive Weather Map New forecast layout! Learn more

10-Day Weather Forecast

Advertisements
Track Severe Weather on mobile